Time;durP1;ratioP1;P1;durP2;ratioP2;P2;SDS_P1;SDS_P2;PMS_P1;PMS_P2;Temp;Humidity;BMP_temperature;BMP_pressure;BME280_temperature;BME280_humidity;BME280_pressure;Samples;Min_cycle;Max_cycle;Signal;HPM_P1;HPM_P2
2023/03/02 00:02:05;;;;;;;8.07;4.78;;;;;;;3.46;53.17;102338.72;5054735;28;20029;-65
2023/03/02 00:04:36;;;;;;;10.23;5.47;;;;;;;3.37;53.94;102339.03;5038242;28;20033;-65
2023/03/02 00:07:06;;;;;;;7.63;5.10;;;;;;;3.37;54.19;102335.53;5054442;28;20390;-64
2023/03/02 00:09:32;;;;;;;9.18;5.28;;;;;;;3.32;53.71;102330.03;5054450;28;20036;-64
2023/03/02 00:11:57;;;;;;;8.57;5.32;;;;;;;3.28;54.18;102334.97;5053489;28;20102;-65
2023/03/02 00:14:23;;;;;;;8.18;5.30;;;;;;;3.22;54.61;102338.09;5054033;28;20029;-64
2023/03/02 00:16:48;;;;;;;8.27;5.20;;;;;;;3.21;54.03;102331.97;5036407;28;20031;-64
2023/03/02 00:19:14;;;;;;;7.93;4.97;;;;;;;3.22;54.14;102335.47;5053764;28;20029;-64
2023/03/02 00:21:40;;;;;;;10.45;5.55;;;;;;;3.20;54.07;102332.75;5053793;28;20029;-64
2023/03/02 00:24:06;;;;;;;9.40;5.40;;;;;;;3.15;54.69;102339.38;5035875;28;20124;-65
2023/03/02 00:26:33;;;;;;;10.13;5.50;;;;;;;3.09;55.00;102331.16;5053614;28;20040;-65
2023/03/02 00:28:58;;;;;;;9.82;5.38;;;;;;;3.05;54.83;102326.56;5053878;28;20028;-65
2023/03/02 00:31:24;;;;;;;7.95;5.55;;;;;;;3.03;54.90;102333.38;5053686;28;20075;-65
2023/03/02 00:33:53;;;;;;;9.90;5.40;;;;;;;2.96;55.27;102333.78;5053846;28;20045;-64
2023/03/02 00:36:19;;;;;;;10.38;5.45;;;;;;;2.94;55.22;102331.06;5035830;28;20068;-65
2023/03/02 00:38:45;;;;;;;8.75;5.35;;;;;;;2.94;55.84;102335.38;5053707;28;20036;-65
2023/03/02 00:41:12;;;;;;;9.93;5.45;;;;;;;2.90;55.26;102329.03;5053513;28;20036;-65
2023/03/02 00:43:37;;;;;;;8.05;5.03;;;;;;;2.86;55.60;102340.09;5053297;28;20430;-65
2023/03/02 00:46:14;;;;;;;9.57;5.35;;;;;;;2.87;55.53;102335.78;5053699;28;20082;-64
2023/03/02 00:48:40;;;;;;;10.43;5.10;;;;;;;2.94;55.65;102338.88;5053386;28;20035;-65
2023/03/02 00:51:06;;;;;;;9.38;5.25;;;;;;;3.04;55.09;102334.25;5053413;28;20033;-64
2023/03/02 00:53:32;;;;;;;7.65;4.88;;;;;;;3.16;54.84;102342.91;5053920;28;20048;-65
2023/03/02 00:55:58;;;;;;;8.10;5.18;;;;;;;3.17;55.14;102339.47;5055782;28;20033;-64
2023/03/02 00:58:25;;;;;;;9.27;5.35;;;;;;;3.15;54.69;102328.03;5058490;28;20117;-64
2023/03/02 01:00:51;;;;;;;9.15;5.22;;;;;;;3.19;54.66;102332.66;5055126;28;20033;-64
2023/03/02 01:03:16;;;;;;;10.88;5.50;;;;;;;3.13;54.29;102335.78;5054657;28;20025;-64
2023/03/02 01:05:41;;;;;;;8.63;5.30;;;;;;;3.09;55.16;102332.88;5053511;28;20131;-65
2023/03/02 01:08:07;;;;;;;10.23;5.40;;;;;;;3.03;55.52;102330.75;5053206;28;20471;-64
2023/03/02 01:10:33;;;;;;;8.30;5.35;;;;;;;3.01;55.12;102332.38;5052959;28;20122;-64
2023/03/02 01:12:58;;;;;;;11.15;5.43;;;;;;;2.98;55.43;102327.84;5052902;28;20112;-64
2023/03/02 01:15:24;;;;;;;10.90;5.35;;;;;;;2.98;54.63;102317.41;5053214;28;20017;-64
2023/03/02 01:17:49;;;;;;;9.82;5.40;;;;;;;3.03;55.39;102319.41;5052916;28;20083;-64
2023/03/02 01:20:16;;;;;;;8.93;5.40;;;;;;;3.05;54.63;102321.31;5035065;28;20069;-64
2023/03/02 01:22:42;;;;;;;10.13;5.53;;;;;;;3.14;54.71;102318.41;5052037;28;20382;-64
2023/03/02 01:25:08;;;;;;;8.80;5.40;;;;;;;3.15;54.73;102325.44;5052764;28;20025;-65
2023/03/02 01:27:33;;;;;;;10.48;5.43;;;;;;;3.10;54.87;102319.00;5053026;28;20021;-64
2023/03/02 01:29:59;;;;;;;8.95;5.78;;;;;;;3.05;55.02;102323.03;5052684;28;20460;-64
2023/03/02 01:32:24;;;;;;;11.43;5.38;;;;;;;3.01;55.25;102322.81;5052792;28;20029;-65
2023/03/02 01:34:50;;;;;;;9.02;6.10;;;;;;;2.94;55.32;102318.00;5034878;28;20513;-65
2023/03/02 01:37:15;;;;;;;11.35;5.68;;;;;;;2.83;56.00;102320.75;5052617;28;20049;-65
2023/03/02 01:39:41;;;;;;;8.32;5.43;;;;;;;2.74;56.43;102316.72;5052951;28;20432;-64
2023/03/02 01:42:06;;;;;;;9.05;5.60;;;;;;;2.60;57.00;102311.38;5034744;28;20040;-64
2023/03/02 01:44:33;;;;;;;9.82;6.10;;;;;;;2.54;57.24;102313.59;5052773;28;20375;-64
2023/03/02 01:46:59;;;;;;;9.65;5.70;;;;;;;2.53;57.44;102306.53;5052855;28;20098;-64
2023/03/02 01:49:25;;;;;;;9.40;5.93;;;;;;;2.52;57.56;102305.63;5052337;28;20072;-64
2023/03/02 01:51:51;;;;;;;9.43;5.70;;;;;;;2.50;57.66;102308.16;5052617;28;20498;-65
2023/03/02 01:54:21;;;;;;;8.35;5.75;;;;;;;2.43;57.82;102305.03;5052553;28;20403;-65
2023/03/02 01:56:49;;;;;;;9.00;5.70;;;;;;;2.42;58.28;102301.53;5052587;28;20083;-64
2023/03/02 01:59:18;;;;;;;9.23;5.72;;;;;;;2.37;58.49;102297.72;5052572;28;20108;-64
2023/03/02 02:01:46;;;;;;;9.70;5.82;;;;;;;2.36;58.54;102293.31;5052607;28;20021;-64
2023/03/02 02:04:12;;;;;;;10.73;5.97;;;;;;;2.38;58.75;102296.91;5034670;28;20390;-64
2023/03/02 02:06:52;;;;;;;8.75;5.90;;;;;;;2.35;58.96;102288.84;5034758;28;20029;-64
2023/03/02 02:09:19;;;;;;;11.43;6.30;;;;;;;2.36;59.26;102298.50;5034735;28;20029;-64
2023/03/02 02:11:45;;;;;;;8.93;5.95;;;;;;;2.30;59.24;102290.25;5052638;28;20028;-64
2023/03/02 02:14:11;;;;;;;10.10;6.15;;;;;;;2.29;59.35;102293.69;5055524;28;20029;-64
2023/03/02 02:16:37;;;;;;;9.93;5.80;;;;;;;2.26;59.65;102293.47;5072502;28;20122;-64
2023/03/02 02:19:33;;;;;;;8.73;5.50;;;;;;;2.37;60.17;102296.81;5076021;28;20048;-64
2023/03/02 02:21:59;;;;;;;10.98;6.15;;;;;;;2.34;59.52;102292.28;4964649;28;20037;-64
2023/03/02 02:24:43;;;;;;;10.43;6.10;;;;;;;2.36;59.23;102290.69;5052506;28;20492;-64
2023/03/02 02:27:09;;;;;;;13.07;6.28;;;;;;;2.34;59.36;102281.84;5052670;28;20025;-64
2023/03/02 02:29:44;;;;;;;10.70;6.15;;;;;;;2.29;59.40;102288.47;5052241;28;20044;-64
2023/03/02 02:32:15;;;;;;;10.75;6.35;;;;;;;2.21;60.13;102282.72;5052642;28;20044;-64
2023/03/02 02:34:45;;;;;;;13.10;6.72;;;;;;;2.16;60.53;102286.72;5036474;28;20033;-64
2023/03/02 02:37:15;;;;;;;13.23;6.63;;;;;;;2.16;60.54;102283.22;5055907;28;20438;-64
2023/03/02 02:39:46;;;;;;;12.63;6.75;;;;;;;2.11;61.02;102288.13;5055824;28;20399;-64
2023/03/02 02:42:15;;;;;;;13.52;7.45;;;;;;;2.10;61.48;102278.50;5055770;28;20052;-64
2023/03/02 02:44:41;;;;;;;16.70;8.15;;;;;;;2.08;62.26;102287.00;5055671;28;20032;-65
2023/03/02 02:47:16;;;;;;;12.35;7.50;;;;;;;2.09;62.02;102283.59;5038178;28;20047;-64
2023/03/02 02:49:42;;;;;;;15.00;7.78;;;;;;;2.08;62.88;102282.69;5055679;28;20021;-64
2023/03/02 02:52:13;;;;;;;17.83;8.25;;;;;;;2.11;63.06;102276.78;5055620;28;20052;-64
2023/03/02 02:54:41;;;;;;;16.65;8.90;;;;;;;2.11;63.55;102269.88;5055800;28;20079;-64
2023/03/02 02:57:11;;;;;;;16.92;8.93;;;;;;;2.06;64.27;102273.88;5056126;28;20391;-64
2023/03/02 02:59:58;;;;;;;17.08;9.90;;;;;;;2.02;65.13;102274.47;5037526;28;20043;-64
2023/03/02 03:02:31;;;;;;;17.73;10.48;;;;;;;1.94;65.68;102273.94;5055665;28;20356;-64
2023/03/02 03:05:01;;;;;;;19.95;10.77;;;;;;;1.90;66.55;102276.22;5055327;28;20021;-64
2023/03/02 03:07:29;;;;;;;19.98;11.57;;;;;;;1.90;67.36;102276.22;5055272;28;20032;-64
2023/03/02 03:10:16;;;;;;;20.05;11.88;;;;;;;1.93;67.13;102273.84;5055118;28;20459;-64
2023/03/02 03:12:42;;;;;;;20.33;12.35;;;;;;;1.87;67.83;102276.91;5055077;28;20025;-64
2023/03/02 03:15:09;;;;;;;23.35;12.88;;;;;;;1.83;68.87;102274.91;5055195;28;20087;-64
2023/03/02 03:17:34;;;;;;;20.15;12.10;;;;;;;1.80;68.96;102266.88;5055123;28;20029;-64
2023/03/02 03:20:05;;;;;;;23.63;13.20;;;;;;;1.85;69.24;102269.81;5054940;28;20040;-64
2023/03/02 03:22:34;;;;;;;23.67;13.00;;;;;;;1.85;69.54;102270.72;5055351;28;20033;-64
2023/03/02 03:25:00;;;;;;;24.17;13.73;;;;;;;1.88;69.38;102277.81;5055260;28;20075;-64
2023/03/02 03:27:25;;;;;;;26.73;14.23;;;;;;;1.86;69.94;102267.28;5054938;28;20498;-64
2023/03/02 03:29:51;;;;;;;26.58;14.93;;;;;;;1.85;70.53;102270.72;5054963;28;20112;-64
2023/03/02 03:32:17;;;;;;;27.20;14.25;;;;;;;1.83;70.52;102268.78;5054886;28;20506;-64
2023/03/02 03:34:43;;;;;;;24.75;14.05;;;;;;;1.78;71.12;102254.53;5055083;28;20086;-64
2023/03/02 03:37:12;;;;;;;27.05;14.65;;;;;;;1.74;71.45;102259.53;5054624;28;20495;-64
2023/03/02 03:39:38;;;;;;;28.25;14.82;;;;;;;1.70;71.60;102261.81;5054900;28;20100;-64
2023/03/02 03:42:04;;;;;;;31.27;15.82;;;;;;;1.66;72.18;102254.59;5054591;28;20132;-64
2023/03/02 03:44:30;;;;;;;29.45;15.65;;;;;;;1.63;71.97;102257.91;5036712;28;20028;-64
2023/03/02 03:46:55;;;;;;;28.30;15.68;;;;;;;1.63;72.40;102257.91;5053972;28;20021;-64
2023/03/02 03:49:21;;;;;;;27.70;15.85;;;;;;;1.65;72.79;102261.50;5054414;28;20021;-64
2023/03/02 03:51:46;;;;;;;29.27;15.80;;;;;;;1.60;72.82;102255.06;5054460;28;20106;-64
2023/03/02 03:54:12;;;;;;;30.05;15.90;;;;;;;1.62;73.34;102263.88;5054703;28;20108;-64
2023/03/02 03:56:41;;;;;;;29.45;16.30;;;;;;;1.62;73.26;102263.00;5054347;28;20104;-64
2023/03/02 03:59:09;;;;;;;29.35;16.10;;;;;;;1.60;73.26;102267.19;5036331;28;20060;-64
2023/03/02 04:01:39;;;;;;;28.83;15.25;;;;;;;1.63;73.55;102273.53;5054349;28;20374;-64
2023/03/02 04:04:09;;;;;;;28.23;15.35;;;;;;;1.67;73.35;102274.63;5054270;28;20055;-64
2023/03/02 04:06:35;;;;;;;30.70;15.88;;;;;;;1.64;73.67;102267.53;5054308;28;20071;-64
2023/03/02 04:09:03;;;;;;;28.20;16.13;;;;;;;1.66;73.51;102272.81;5053952;28;20021;-64
2023/03/02 04:11:35;;;;;;;28.92;16.52;;;;;;;1.68;72.97;102273.84;5054424;28;20029;-64
2023/03/02 04:14:01;;;;;;;;;;;;;;;1.78;72.18;102264.97;5054453;28;20036;-64
2023/03/02 04:16:27;;;;;;;31.50;15.82;;;;;;;1.75;72.95;102263.94;5054110;28;19915;-64
2023/03/02 04:18:53;;;;;;;30.45;15.98;;;;;;;1.71;73.27;102258.41;5053736;28;20033;-64
2023/03/02 04:21:19;;;;;;;29.00;15.30;;;;;;;1.71;73.33;102266.22;5053898;28;20371;-64
2023/03/02 04:23:44;;;;;;;32.63;16.75;;;;;;;1.70;73.61;102264.44;5036130;28;20074;-64
2023/03/02 04:26:10;;;;;;;29.73;15.93;;;;;;;1.69;73.06;102271.34;5053831;28;20021;-64
2023/03/02 04:28:35;;;;;;;27.00;15.23;;;;;;;1.73;72.87;102269.84;5053673;28;20052;-65
2023/03/02 04:31:00;;;;;;;31.27;16.58;;;;;;;1.71;73.29;102271.44;5053560;28;20028;-64
2023/03/02 04:33:26;;;;;;;42.00;16.13;;;;;;;1.79;72.46;102269.38;5036144;28;20025;-64
2023/03/02 04:35:53;;;;;;;31.27;15.57;;;;;;;1.81;72.56;102273.00;5053634;28;20032;-64
2023/03/02 04:38:19;;;;;;;30.77;16.02;;;;;;;1.81;72.57;102271.28;5053434;28;20040;-64
2023/03/02 04:40:45;;;;;;;27.95;14.55;;;;;;;1.76;72.12;102270.09;5053562;28;20044;-64
2023/03/02 04:43:10;;;;;;;28.88;15.90;;;;;;;1.72;72.05;102271.56;5053137;28;20056;-64
2023/03/02 04:45:35;;;;;;;28.90;15.98;;;;;;;1.67;72.18;102277.22;5053451;28;20049;-64
2023/03/02 04:48:01;;;;;;;29.55;14.90;;;;;;;1.62;72.14;102270.81;5053692;28;20398;-64
2023/03/02 04:50:26;;;;;;;28.13;14.73;;;;;;;1.68;72.15;102268.66;5053244;28;20029;-64
2023/03/02 04:52:51;;;;;;;28.08;15.95;;;;;;;1.63;72.70;102265.72;5053368;28;20035;-64
2023/03/02 04:55:20;;;;;;;29.40;16.13;;;;;;;1.50;73.19;102266.56;5053522;28;20075;-64
2023/03/02 04:57:46;;;;;;;28.65;14.68;;;;;;;1.48;73.34;102260.31;5053033;28;20032;-64
2023/03/02 05:00:12;;;;;;;29.95;16.02;;;;;;;1.50;72.98;102263.06;5053249;28;20487;-64
2023/03/02 05:02:38;;;;;;;28.40;15.20;;;;;;;1.53;72.91;102263.25;5053233;28;20036;-64
2023/03/02 05:05:06;;;;;;;31.15;16.52;;;;;;;1.53;72.98;102259.75;5053223;28;20118;-64
2023/03/02 05:07:32;;;;;;;29.80;15.27;;;;;;;1.50;73.31;102269.16;5053406;28;20033;-64
2023/03/02 05:09:57;;;;;;;30.73;15.80;;;;;;;1.49;73.12;102274.25;5052835;28;20497;-64
2023/03/02 05:12:22;;;;;;;27.58;15.10;;;;;;;1.49;72.86;102272.53;5052973;28;20024;-64
2023/03/02 05:14:48;;;;;;;30.35;16.10;;;;;;;1.48;72.83;102275.06;5052998;28;20036;-64
2023/03/02 05:17:13;;;;;;;28.30;15.23;;;;;;;1.47;73.12;102275.84;5052984;28;20032;-64
2023/03/02 05:19:39;;;;;;;29.85;15.57;;;;;;;1.45;73.26;102265.31;5052721;28;20029;-64
2023/03/02 05:22:04;;;;;;;26.85;14.88;;;;;;;1.48;72.71;102275.06;5035488;28;20044;-64
2023/03/02 05:24:30;;;;;;;32.03;16.17;;;;;;;1.48;72.70;102275.06;5053131;28;20048;-64
2023/03/02 05:26:55;;;;;;;30.60;16.00;;;;;;;1.47;72.80;102275.84;5052831;28;20120;-64
2023/03/02 05:29:20;;;;;;;29.23;15.50;;;;;;;1.46;73.39;102271.47;5052552;28;20028;-64
2023/03/02 05:31:46;;;;;;;32.22;16.05;;;;;;;1.43;73.61;102274.72;5052683;28;20029;-64
2023/03/02 05:34:15;;;;;;;32.72;16.17;;;;;;;1.39;73.45;102275.31;5052686;28;20070;-64
2023/03/02 05:36:40;;;;;;;31.25;15.82;;;;;;;1.37;73.56;102261.28;5052349;28;20106;-63
2023/03/02 05:39:06;;;;;;;29.80;15.32;;;;;;;1.37;73.31;102270.78;5052612;28;20021;-63
2023/03/02 05:41:33;;;;;;;31.63;16.42;;;;;;;1.36;74.09;102269.88;5052918;28;20025;-63
2023/03/02 05:43:58;;;;;;;32.88;16.73;;;;;;;1.34;73.92;102266.28;5052418;28;20476;-64
2023/03/02 05:46:24;;;;;;;33.90;16.20;;;;;;;1.36;73.52;102269.88;5052470;28;20025;-64
2023/03/02 05:48:49;;;;;;;33.80;16.77;;;;;;;1.41;73.67;102278.00;5034482;28;20123;-64
2023/03/02 05:51:15;;;;;;;32.65;17.17;;;;;;;1.43;74.03;102279.94;5052691;28;20379;-64
2023/03/02 05:53:40;;;;;;;30.10;15.65;;;;;;;1.46;73.46;102279.28;5052539;28;20406;-63
2023/03/02 05:56:06;;;;;;;36.83;17.83;;;;;;;1.45;74.21;102267.91;5052583;28;20052;-63
2023/03/02 05:58:31;;;;;;;35.92;17.77;;;;;;;1.46;73.60;102268.84;5052685;28;20055;-64
2023/03/02 06:00:57;;;;;;;37.15;18.38;;;;;;;1.39;74.45;102264.00;5052543;28;20482;-64
2023/03/02 06:03:22;;;;;;;36.72;18.35;;;;;;;1.34;74.66;102266.28;5052460;28;20033;-63
2023/03/02 06:05:51;;;;;;;36.33;17.58;;;;;;;1.33;74.61;102266.16;5052737;28;20032;-63
2023/03/02 06:08:18;;;;;;;34.00;17.65;;;;;;;1.27;75.07;102266.63;5051323;28;20036;-64
2023/03/02 06:10:43;;;;;;;42.42;19.70;;;;;;;1.22;75.33;102266.31;5056324;28;20060;-63
2023/03/02 06:13:09;;;;;;;36.17;19.23;;;;;;;1.20;75.50;102265.31;5056264;28;20044;-63
2023/03/02 06:15:35;;;;;;;39.97;19.17;;;;;;;1.19;74.90;102263.47;5056686;28;20035;-63
2023/03/02 06:18:01;;;;;;;43.78;19.45;;;;;;;1.17;75.45;102264.19;5056274;28;20035;-63
2023/03/02 06:20:26;;;;;;;41.65;19.52;;;;;;;1.13;75.47;102264.75;5056005;28;20453;-63
2023/03/02 06:22:52;;;;;;;41.55;19.48;;;;;;;1.11;76.04;102269.81;5056130;28;20025;-63
2023/03/02 06:25:21;;;;;;;34.50;17.85;;;;;;;1.14;75.89;102276.97;5056359;28;20104;-64
2023/03/02 06:27:51;;;;;;;38.65;18.70;;;;;;;1.11;76.54;102271.53;5055965;28;20029;-63
2023/03/02 06:30:18;;;;;;;48.63;23.15;;;;;;;1.02;76.87;102274.38;5056006;28;20056;-63
2023/03/02 06:32:44;;;;;;;42.25;21.02;;;;;;;1.00;76.62;102278.59;5055923;28;20028;-64
2023/03/02 06:35:11;;;;;;;43.60;20.17;;;;;;;0.99;76.98;102285.50;5056039;28;20082;-63
2023/03/02 06:37:36;;;;;;;45.10;21.45;;;;;;;1.02;77.15;102281.28;5055539;28;20049;-63
2023/03/02 06:40:07;;;;;;;38.53;19.10;;;;;;;0.99;77.93;102282.00;5055726;28;20479;-63
2023/03/02 06:42:33;;;;;;;49.42;21.08;;;;;;;0.96;77.63;102281.75;5055711;28;20033;-63
2023/03/02 06:44:58;;;;;;;44.85;20.02;;;;;;;0.97;78.18;102283.56;5055728;28;20025;-63
2023/03/02 06:47:24;;;;;;;43.88;20.40;;;;;;;0.97;78.22;102286.16;5055559;28;20029;-63
2023/03/02 06:49:49;;;;;;;43.72;20.40;;;;;;;0.95;78.86;102285.16;5055633;28;20067;-63
2023/03/02 06:52:15;;;;;;;40.08;18.95;;;;;;;0.95;78.30;102285.16;5055602;28;20025;-63
2023/03/02 06:54:40;;;;;;;45.30;20.15;;;;;;;0.90;79.14;102283.91;5055763;28;20040;-63
2023/03/02 06:57:06;;;;;;;40.72;19.13;;;;;;;0.93;78.18;102291.94;5055457;28;20152;-63
2023/03/02 06:59:32;;;;;;;41.92;19.50;;;;;;;1.05;78.82;102292.84;5055390;28;20134;-63
2023/03/02 07:01:57;;;;;;;41.53;18.77;;;;;;;1.16;78.20;102293.63;5055420;28;20029;-63
2023/03/02 07:04:23;;;;;;;39.38;18.10;;;;;;;1.33;77.50;102295.72;5055329;28;20475;-63
2023/03/02 07:06:48;;;;;;;46.63;20.08;;;;;;;1.54;77.85;102296.31;5055512;28;20032;-63
2023/03/02 07:09:14;;;;;;;43.85;20.38;;;;;;;1.74;77.08;102301.22;5054204;28;20029;-63
2023/03/02 07:11:39;;;;;;;38.60;18.33;;;;;;;1.92;75.57;102298.09;5056708;28;20029;-63
2023/03/02 07:14:05;;;;;;;42.60;18.77;;;;;;;2.11;75.42;102295.06;5056179;28;20029;-63
2023/03/02 07:16:32;;;;;;;37.42;17.65;;;;;;;2.32;75.02;102309.53;5055277;28;20029;-63
2023/03/02 07:18:58;;;;;;;36.40;17.80;;;;;;;2.46;73.94;102307.84;5054832;28;20079;-63
2023/03/02 07:21:23;;;;;;;36.92;16.42;;;;;;;2.62;73.21;102299.34;5053513;28;20037;-63
2023/03/02 07:23:49;;;;;;;35.50;17.52;;;;;;;2.74;72.47;102306.28;5055187;28;20082;-63
2023/03/02 07:26:14;;;;;;;40.42;18.80;;;;;;;2.91;72.92;102303.84;5055115;28;20471;-63
2023/03/02 07:28:40;;;;;;;43.38;18.88;;;;;;;3.09;72.52;102298.94;5054776;28;20062;-63
2023/03/02 07:31:07;;;;;;;36.65;18.00;;;;;;;3.32;71.66;102310.84;5055123;28;20025;-63
2023/03/02 07:33:34;;;;;;;34.72;17.45;;;;;;;3.49;69.71;102310.19;5054824;28;20044;-63
2023/03/02 07:35:59;;;;;;;39.72;19.05;;;;;;;3.62;69.07;102301.41;5055029;28;20025;-63
2023/03/02 07:38:25;;;;;;;40.50;18.23;;;;;;;3.75;69.16;102301.34;5054517;28;20045;-63
2023/03/02 07:40:50;;;;;;;37.58;17.27;;;;;;;3.90;69.42;102299.69;5054688;28;20056;-63
2023/03/02 07:43:16;;;;;;;40.63;18.33;;;;;;;4.03;68.33;102298.72;5054648;28;20428;-63
2023/03/02 07:45:41;;;;;;;39.65;19.08;;;;;;;4.19;68.11;102297.91;5054828;28;20032;-63
2023/03/02 07:48:07;;;;;;;37.92;17.92;;;;;;;4.30;67.26;102299.47;5054588;28;20100;-63
2023/03/02 07:50:32;;;;;;;38.17;18.13;;;;;;;4.43;67.09;102298.47;5054279;28;20543;-64
2023/03/02 07:52:58;;;;;;;36.17;17.95;;;;;;;4.60;65.97;102300.38;5054315;28;20021;-64
2023/03/02 07:55:29;;;;;;;41.00;18.38;;;;;;;4.80;65.52;102300.59;5054357;28;20037;-63
2023/03/02 07:57:54;;;;;;;35.35;17.88;;;;;;;4.95;64.01;102294.53;5054305;28;20029;-64
2023/03/02 08:00:20;;;;;;;37.38;17.85;;;;;;;5.13;63.26;102296.38;5054367;28;20496;-64
2023/03/02 08:02:46;;;;;;;33.88;17.50;;;;;;;5.37;63.33;102297.75;5054180;28;20021;-64
2023/03/02 08:05:12;;;;;;;35.42;17.55;;;;;;;5.52;62.12;102305.53;5054341;28;20429;-64
2023/03/02 08:07:39;;;;;;;36.47;17.75;;;;;;;5.71;62.79;102300.47;5054141;28;20059;-64
2023/03/02 08:10:05;;;;;;;35.22;17.90;;;;;;;5.92;61.08;102298.13;5036224;28;20471;-64
2023/03/02 08:12:30;;;;;;;35.55;17.35;;;;;;;6.07;59.80;102298.03;5054026;28;20024;-64
2023/03/02 08:14:56;;;;;;;34.55;17.38;;;;;;;6.19;59.60;102295.16;5054178;28;20029;-65
2023/03/02 08:17:22;;;;;;;36.92;16.83;;;;;;;6.38;59.87;102291.72;5054078;28;20021;-65
2023/03/02 08:19:47;;;;;;;33.10;17.00;;;;;;;6.59;58.88;102297.16;5036035;28;20036;-65
2023/03/02 08:22:13;;;;;;;34.17;17.70;;;;;;;6.64;58.60;102286.09;5036176;28;20057;-65
2023/03/02 08:24:40;;;;;;;34.85;16.73;;;;;;;6.72;57.08;102291.69;5053914;28;20025;-65
2023/03/02 08:27:06;;;;;;;32.95;16.40;;;;;;;6.75;56.09;102284.88;5052656;28;20120;-65
2023/03/02 08:29:31;;;;;;;31.73;16.20;;;;;;;6.95;55.91;102296.38;5053723;28;20029;-65
2023/03/02 08:32:00;;;;;;;31.38;15.98;;;;;;;7.24;53.99;102291.63;5053360;28;20064;-65
2023/03/02 08:34:26;;;;;;;30.83;15.88;;;;;;;7.26;52.68;102290.84;5054847;28;20390;-65
2023/03/02 08:36:52;;;;;;;30.10;15.80;;;;;;;7.24;54.17;102289.00;5055077;28;20120;-65
2023/03/02 08:39:17;;;;;;;29.20;14.98;;;;;;;7.38;53.53;102298.44;5054302;28;20079;-66
2023/03/02 08:41:43;;;;;;;34.20;15.57;;;;;;;7.58;52.11;102298.44;5053807;28;20021;-65
2023/03/02 08:44:08;;;;;;;32.95;15.40;;;;;;;7.75;52.43;102295.78;5053530;28;20033;-65
2023/03/02 08:46:34;;;;;;;29.52;14.82;;;;;;;7.82;50.61;102290.78;5053513;28;20505;-66
2023/03/02 08:48:59;;;;;;;28.75;14.57;;;;;;;7.95;50.43;102287.84;5053537;28;20033;-66
2023/03/02 08:51:25;;;;;;;27.67;13.77;;;;;;;8.25;50.67;102291.84;5053606;28;20056;-66
2023/03/02 08:53:53;;;;;;;29.05;14.45;;;;;;;8.61;50.34;102293.34;5053650;28;20382;-66
2023/03/02 08:56:31;;;;;;;28.48;14.93;;;;;;;9.05;49.81;102278.50;5053541;28;20112;-66
2023/03/02 08:59:01;;;;;;;35.15;16.40;;;;;;;9.30;48.55;102288.28;5053292;28;20032;-67
2023/03/02 09:01:30;;;;;;;25.73;14.27;;;;;;;9.58;47.14;102287.56;5053245;28;20029;-67
2023/03/02 09:03:58;;;;;;;26.98;14.55;;;;;;;9.64;45.86;102278.16;5053575;28;20021;-66
2023/03/02 09:06:24;;;;;;;28.15;14.70;;;;;;;9.78;46.33;102282.22;5053170;28;20441;-67
2023/03/02 09:08:50;;;;;;;26.58;14.65;;;;;;;10.05;44.97;102270.84;5053413;28;20045;-67
2023/03/02 09:11:16;;;;;;;29.00;14.05;;;;;;;10.49;45.33;102268.88;5053412;28;20025;-66
2023/03/02 09:13:42;;;;;;;27.08;13.75;;;;;;;10.59;43.43;102271.00;5053014;28;20555;-66
2023/03/02 09:16:08;;;;;;;24.52;14.00;;;;;;;10.65;43.91;102265.00;5053339;28;20057;-66
2023/03/02 09:18:35;;;;;;;29.77;14.73;;;;;;;10.88;43.49;102274.63;5053287;28;20430;-65
2023/03/02 09:21:00;;;;;;;25.63;14.45;;;;;;;10.87;41.89;102277.19;5053064;28;20033;-65
2023/03/02 09:23:26;;;;;;;26.23;14.05;;;;;;;11.13;41.88;102276.25;5053093;28;20467;-65
2023/03/02 09:25:52;;;;;;;26.25;13.95;;;;;;;11.25;40.52;102270.47;5052929;28;20071;-66
2023/03/02 09:28:18;;;;;;;25.65;14.60;;;;;;;11.41;40.80;102271.84;5052797;28;20386;-66
2023/03/02 09:30:56;;;;;;;28.95;13.27;;;;;;;11.93;40.99;102270.72;5052690;28;20024;-63
2023/03/02 09:33:23;;;;;;;25.38;14.02;;;;;;;12.13;38.76;102269.53;5052918;28;20028;-63
2023/03/02 09:35:49;;;;;;;23.13;13.15;;;;;;;12.37;38.57;102263.09;5018441;28;20033;-64
2023/03/02 09:38:16;;;;;;;23.95;12.95;;;;;;;12.48;37.31;102266.91;5052570;28;20502;-65
2023/03/02 09:40:48;;;;;;;25.23;13.50;;;;;;;12.78;37.51;102264.13;5052235;28;20509;-66
2023/03/02 09:43:29;;;;;;;21.42;13.35;;;;;;;12.95;37.20;102269.84;5052802;28;20033;-66
2023/03/02 09:46:12;;;;;;;22.83;12.98;;;;;;;13.16;36.67;102265.03;5057022;28;20028;-66
2023/03/02 09:48:45;;;;;;;23.73;13.82;;;;;;;13.39;36.66;102262.03;5056530;28;20021;-65
2023/03/02 09:51:44;;;;;;;22.00;12.77;;;;;;;13.34;35.05;102253.09;5056802;28;20069;-63
2023/03/02 09:54:12;;;;;;;20.88;12.70;;;;;;;13.26;36.03;102261.75;5056202;28;20029;-65
2023/03/02 09:56:47;;;;;;;21.95;12.75;;;;;;;13.08;35.08;102257.78;5039097;28;20032;-64
2023/03/02 09:59:36;;;;;;;21.63;12.63;;;;;;;13.12;35.32;102254.31;5056581;28;20043;-64
2023/03/02 10:02:10;;;;;;;21.58;12.70;;;;;;;12.96;35.04;102258.38;5056761;28;20060;-64
2023/03/02 10:04:49;;;;;;;19.98;12.23;;;;;;;12.98;34.62;102259.31;5056551;28;20039;-64
2023/03/02 10:07:30;;;;;;;18.52;11.27;;;;;;;13.05;34.86;102258.59;5056587;28;20036;-64
2023/03/02 10:10:22;;;;;;;17.80;10.63;;;;;;;13.10;33.23;102256.91;5056576;28;20052;-64
2023/03/02 10:13:20;;;;;;;17.73;11.33;;;;;;;12.86;34.19;102256.38;5056367;28;20091;-65
2023/03/02 10:16:04;;;;;;;18.73;11.18;;;;;;;12.83;32.73;102262.50;5056230;28;20192;-65
2023/03/02 10:19:04;;;;;;;17.63;10.73;;;;;;;12.82;33.86;102258.06;5056317;28;20151;-65
2023/03/02 10:21:43;;;;;;;16.25;10.43;;;;;;;12.94;32.59;102271.63;5035268;28;20410;-65
2023/03/02 10:24:15;;;;;;;18.75;10.88;;;;;;;13.25;33.26;102256.44;5056270;28;20037;-63
2023/03/02 10:26:40;;;;;;;;;;;;;;;13.31;32.32;102255.66;5056878;28;20017;-64
2023/03/02 10:29:14;;;;;;;17.17;10.20;;;;;;;13.21;32.64;102260.72;5056346;28;19987;-63
2023/03/02 10:31:42;;;;;;;17.27;10.43;;;;;;;13.21;32.14;102260.72;5056226;28;20021;-67
2023/03/02 10:34:10;;;;;;;18.00;10.90;;;;;;;13.29;32.43;102250.31;5055966;28;20025;-65
2023/03/02 10:36:38;;;;;;;18.00;10.60;;;;;;;13.35;32.37;102254.88;5055628;28;20041;-63
2023/03/02 10:39:11;;;;;;;18.33;10.65;;;;;;;13.77;31.46;102253.09;5056109;28;20372;-64
2023/03/02 10:41:43;;;;;;;18.15;10.70;;;;;;;13.58;31.58;102258.03;5056247;28;20029;-65
2023/03/02 10:44:30;;;;;;;16.80;10.23;;;;;;;13.81;32.09;102234.59;5038036;28;20483;-65
2023/03/02 10:46:56;;;;;;;16.10;9.95;;;;;;;13.91;32.11;102240.09;5055668;28;20035;-64
2023/03/02 10:49:27;;;;;;;16.40;10.50;;;;;;;14.04;31.49;102235.91;5055665;28;20120;-65
2023/03/02 10:52:01;;;;;;;17.97;10.57;;;;;;;14.06;30.65;102244.81;5054821;28;20021;-65
2023/03/02 10:54:28;;;;;;;17.92;10.30;;;;;;;14.24;30.87;102236.28;5055679;28;20171;-64
2023/03/02 10:56:58;;;;;;;16.80;10.52;;;;;;;14.37;30.67;102234.75;5055575;28;20391;-63
2023/03/02 10:59:42;;;;;;;18.45;11.32;;;;;;;14.74;31.28;102236.28;5055683;28;20112;-65
2023/03/02 11:02:10;;;;;;;17.13;10.98;;;;;;;14.82;30.67;102236.38;5055576;28;20029;-64
2023/03/02 11:04:35;;;;;;;20.75;11.43;;;;;;;14.49;30.55;102240.31;5055439;28;20029;-65
2023/03/02 11:07:18;;;;;;;15.60;10.57;;;;;;;14.44;31.33;102232.22;5054421;28;20025;-65
2023/03/02 11:10:02;;;;;;;;;;;;;;;14.63;32.70;102227.22;5055830;28;20060;-67
2023/03/02 11:12:29;;;;;;;21.15;11.73;;;;;;;14.72;33.03;102219.38;5055262;28;19913;-65
2023/03/02 11:15:13;;;;;;;17.65;11.38;;;;;;;14.92;31.87;102225.03;5056801;28;20025;-66
2023/03/02 11:17:40;;;;;;;19.98;12.23;;;;;;;14.84;31.98;102221.34;5055118;28;20056;-65
2023/03/02 11:20:15;;;;;;;19.88;12.52;;;;;;;15.07;31.31;102227.91;5055225;28;20079;-66
2023/03/02 11:23:11;;;;;;;22.85;13.60;;;;;;;14.88;31.96;102223.19;5054040;28;20033;-66
2023/03/02 11:25:42;;;;;;;20.27;12.73;;;;;;;14.84;32.58;102222.25;5016646;28;20487;-65